Time;durP1;ratioP1;P1;durP2;ratioP2;P2;SDS_P1;SDS_P2;PMS_P1;PMS_P2;Temp;Humidity;BMP_temperature;BMP_pressure;BME280_temperature;BME280_humidity;BME280_pressure;Samples;Min_cycle;Max_cycle;Signal;HPM_P1;HPM_P2
2021/03/01 00:01:02;;;;;;;3.97;2.80;;;;;;;;;;5017024;28;20060;-57
2021/03/01 00:03:28;;;;;;;3.80;2.90;;;;;;;;;;5015090;28;20148;-57
2021/03/01 00:05:53;;;;;;;5.93;3.40;;;;;;;;;;5019480;28;20132;-57
2021/03/01 00:08:18;;;;;;;6.55;2.92;;;;;;;;;;5027252;28;20033;-57
2021/03/01 00:10:44;;;;;;;5.15;3.00;;;;;;;;;;5013964;28;20455;-57
2021/03/01 00:13:09;;;;;;;4.47;2.90;;;;;;;;;;5027025;28;20033;-58
2021/03/01 00:15:34;;;;;;;4.05;2.75;;;;;;;;;;5020200;28;20052;-58
2021/03/01 00:18:00;;;;;;;4.97;2.70;;;;;;;;;;5014917;28;20030;-58
2021/03/01 00:20:25;;;;;;;6.05;2.97;;;;;;;;;;5025845;28;20030;-58
2021/03/01 00:22:51;;;;;;;4.38;3.28;;;;;;;;;;5013888;28;20030;-58
2021/03/01 00:25:16;;;;;;;3.95;2.92;;;;;;;;;;5023642;28;20026;-57
2021/03/01 00:27:41;;;;;;;4.90;2.60;;;;;;;;;;5017837;28;20429;-58
2021/03/01 00:30:08;;;;;;;4.38;2.83;;;;;;;;;;5017503;28;20075;-57
2021/03/01 00:32:33;;;;;;;3.17;2.50;;;;;;;;;;5018583;28;20025;-58
2021/03/01 00:34:59;;;;;;;4.15;2.67;;;;;;;;;;5027700;28;20036;-57
2021/03/01 00:37:24;;;;;;;4.85;3.00;;;;;;;;;;5011649;28;20030;-57
2021/03/01 00:39:50;;;;;;;3.88;2.65;;;;;;;;;;5017632;28;20395;-58
2021/03/01 00:42:15;;;;;;;4.53;3.08;;;;;;;;;;5018684;28;20041;-56
2021/03/01 00:44:40;;;;;;;4.38;3.08;;;;;;;;;;5023717;28;20072;-61
2021/03/01 00:47:06;;;;;;;6.22;3.08;;;;;;;;;;5021275;28;20501;-57
2021/03/01 00:49:31;;;;;;;4.43;3.05;;;;;;;;;;5011179;28;20110;-56
2021/03/01 00:51:56;;;;;;;4.07;2.78;;;;;;;;;;5018971;28;20501;-57
2021/03/01 00:54:22;;;;;;;4.28;2.95;;;;;;;;;;5014496;28;20030;-58
2021/03/01 00:56:48;;;;;;;4.20;2.95;;;;;;;;;;5017404;28;20021;-57
2021/03/01 00:59:13;;;;;;;5.55;2.83;;;;;;;;;;5014638;28;20458;-56
2021/03/01 01:01:38;;;;;;;4.55;3.20;;;;;;;;;;5022068;28;20025;-58
2021/03/01 01:04:07;;;;;;;4.03;2.78;;;;;;;;;;5017844;28;20040;-58
2021/03/01 01:06:32;;;;;;;4.93;2.67;;;;;;;;;;5022176;28;20111;-58
2021/03/01 01:08:58;;;;;;;3.17;2.63;;;;;;;;;;5021050;28;20033;-58
2021/03/01 01:11:23;;;;;;;4.38;2.72;;;;;;;;;;5017314;28;20030;-57
2021/03/01 01:13:48;;;;;;;4.47;3.10;;;;;;;;;;5023524;28;20029;-57
2021/03/01 01:16:14;;;;;;;4.05;2.95;;;;;;;;;;5011536;28;20029;-57
2021/03/01 01:18:39;;;;;;;3.50;2.63;;;;;;;;;;5014049;28;20125;-57
2021/03/01 01:21:05;;;;;;;5.72;3.20;;;;;;;;;;5021313;28;20064;-57
2021/03/01 01:23:30;;;;;;;3.95;2.80;;;;;;;;;;5020883;28;20549;-57
2021/03/01 01:25:55;;;;;;;4.53;3.00;;;;;;;;;;5014179;28;20492;-58
2021/03/01 01:28:21;;;;;;;3.80;2.80;;;;;;;;;;5011312;28;20030;-58
2021/03/01 01:30:46;;;;;;;4.13;3.00;;;;;;;;;;5027400;28;20037;-57
2021/03/01 01:33:12;;;;;;;6.65;2.90;;;;;;;;;;5021611;28;20048;-57
2021/03/01 01:35:37;;;;;;;3.30;3.00;;;;;;;;;;5015482;28;20068;-58
2021/03/01 01:38:04;;;;;;;3.60;2.70;;;;;;;;;;5028323;28;20021;-57
2021/03/01 01:40:30;;;;;;;3.40;2.70;;;;;;;;;;5029906;28;20098;-57
2021/03/01 01:42:55;;;;;;;4.60;2.80;;;;;;;;;;5025114;28;20021;-57
2021/03/01 01:45:22;;;;;;;4.93;2.70;;;;;;;;;;5021440;28;20026;-57
2021/03/01 01:47:48;;;;;;;4.57;3.33;;;;;;;;;;5026671;28;20045;-58
2021/03/01 01:50:14;;;;;;;4.40;2.88;;;;;;;;;;5020141;28;20034;-57
2021/03/01 01:52:39;;;;;;;3.88;2.90;;;;;;;;;;5017551;28;20096;-57
2021/03/01 01:55:06;;;;;;;4.70;2.88;;;;;;;;;;5024946;28;20025;-58
2021/03/01 01:57:32;;;;;;;3.45;2.58;;;;;;;;;;5018293;28;20038;-57
2021/03/01 01:59:57;;;;;;;4.53;3.00;;;;;;;;;;5020332;28;20071;-58
2021/03/01 02:02:23;;;;;;;6.00;2.70;;;;;;;;;;5017672;28;20033;-58
2021/03/01 02:04:51;;;;;;;5.22;2.63;;;;;;;;;;5018338;28;20389;-58
2021/03/01 02:07:54;;;;;;;5.60;2.80;;;;;;;;;;5017069;28;20247;-59
2021/03/01 02:10:35;;;;;;;4.70;2.80;;;;;;;;;;5050004;28;20033;-57
2021/03/01 02:13:20;;;;;;;4.53;3.20;;;;;;;;;;5029226;28;20056;-57
2021/03/01 02:16:03;;;;;;;2.90;2.60;;;;;;;;;;5020941;28;20042;-57
2021/03/01 02:18:28;;;;;;;5.38;2.78;;;;;;;;;;5019975;28;20036;-58
2021/03/01 02:20:54;;;;;;;5.50;2.90;;;;;;;;;;5028327;28;20029;-57
2021/03/01 02:23:19;;;;;;;5.85;2.83;;;;;;;;;;5017651;28;20483;-58
2021/03/01 02:25:52;;;;;;;4.50;2.70;;;;;;;;;;5019348;28;20813;-58
2021/03/01 02:28:18;;;;;;;4.80;2.90;;;;;;;;;;5017024;28;20510;-58
2021/03/01 02:30:47;;;;;;;4.75;2.63;;;;;;;;;;5026509;28;20021;-58
2021/03/01 02:33:16;;;;;;;6.78;3.40;;;;;;;;;;5028791;28;20030;-57
2021/03/01 02:35:43;;;;;;;5.63;3.08;;;;;;;;;;5025817;28;20029;-58
2021/03/01 02:38:09;;;;;;;5.75;3.20;;;;;;;;;;5032216;28;20029;-57
2021/03/01 02:40:38;;;;;;;5.45;3.03;;;;;;;;;;5032447;28;20024;-57
2021/03/01 02:43:03;;;;;;;7.53;2.95;;;;;;;;;;5013667;28;20106;-59
2021/03/01 02:45:29;;;;;;;5.82;2.80;;;;;;;;;;5019428;28;20113;-57
2021/03/01 02:47:56;;;;;;;5.03;3.45;;;;;;;;;;5015552;28;20398;-57
2021/03/01 02:50:22;;;;;;;4.57;2.80;;;;;;;;;;5033825;28;20027;-58
2021/03/01 02:52:48;;;;;;;4.18;2.70;;;;;;;;;;4997934;28;20017;-58
2021/03/01 02:55:13;;;;;;;6.57;2.83;;;;;;;;;;5015966;28;20432;-57
2021/03/01 02:57:39;;;;;;;6.68;3.10;;;;;;;;;;5032874;28;20022;-57
2021/03/01 03:00:09;;;;;;;6.50;3.03;;;;;;;;;;5016596;28;20509;-58
2021/03/01 03:02:35;;;;;;;5.35;3.10;;;;;;;;;;5019060;28;20029;-57
2021/03/01 03:05:00;;;;;;;5.03;2.72;;;;;;;;;;5029789;28;20065;-58
2021/03/01 03:07:26;;;;;;;6.18;3.25;;;;;;;;;;5022009;28;20037;-58
2021/03/01 03:09:51;;;;;;;5.95;3.22;;;;;;;;;;5032392;28;20040;-58
2021/03/01 03:12:16;;;;;;;6.55;3.20;;;;;;;;;;5031551;28;20033;-57
2021/03/01 03:14:42;;;;;;;5.03;3.00;;;;;;;;;;5043310;28;20040;-58
2021/03/01 03:17:07;;;;;;;5.50;3.10;;;;;;;;;;5015170;28;20071;-58
2021/03/01 03:19:33;;;;;;;5.35;3.35;;;;;;;;;;5013651;28;20018;-58
2021/03/01 03:21:58;;;;;;;7.30;2.75;;;;;;;;;;5016107;28;20052;-58
2021/03/01 03:24:24;;;;;;;4.78;3.10;;;;;;;;;;5021838;28;20030;-57
2021/03/01 03:26:49;;;;;;;4.90;2.85;;;;;;;;;;5017998;28;20034;-56
2021/03/01 03:29:15;;;;;;;8.20;3.30;;;;;;;;;;5016293;28;20387;-58
2021/03/01 03:31:40;;;;;;;6.68;3.05;;;;;;;;;;5014240;28;20025;-58
2021/03/01 03:34:06;;;;;;;5.15;3.03;;;;;;;;;;5025405;28;20046;-58
2021/03/01 03:37:05;;;;;;;4.75;3.28;;;;;;;;;;5006548;28;20501;-57
2021/03/01 03:39:31;;;;;;;5.47;2.70;;;;;;;;;;5047493;28;20057;-58
2021/03/01 03:41:56;;;;;;;6.00;3.13;;;;;;;;;;5013817;28;20072;-58
2021/03/01 03:44:22;;;;;;;5.10;3.25;;;;;;;;;;5003290;28;20029;-58
2021/03/01 03:46:47;;;;;;;4.43;2.63;;;;;;;;;;4997709;28;20027;-58
2021/03/01 03:49:14;;;;;;;5.25;3.05;;;;;;;;;;5021522;28;20029;-58
2021/03/01 03:51:39;;;;;;;4.18;3.20;;;;;;;;;;5022199;28;20040;-57
2021/03/01 03:54:22;;;;;;;5.32;3.10;;;;;;;;;;5035971;28;20030;-57
2021/03/01 03:56:52;;;;;;;5.40;3.03;;;;;;;;;;5014441;28;20018;-57
2021/03/01 03:59:17;;;;;;;6.10;3.08;;;;;;;;;;5039066;28;20026;-58
2021/03/01 04:01:42;;;;;;;5.82;2.83;;;;;;;;;;5022507;28;20190;-57
2021/03/01 04:04:08;;;;;;;4.30;2.85;;;;;;;;;;5014337;28;20064;-58
2021/03/01 04:06:38;;;;;;;5.55;3.00;;;;;;;;;;5013705;28;20042;-58
2021/03/01 04:09:08;;;;;;;5.68;3.08;;;;;;;;;;5034532;28;20398;-58
2021/03/01 04:11:33;;;;;;;4.32;2.72;;;;;;;;;;5018960;28;20034;-57
2021/03/01 04:13:59;;;;;;;5.57;2.97;;;;;;;;;;5013713;28;20823;-57
2021/03/01 04:16:24;;;;;;;6.22;3.03;;;;;;;;;;5029519;28;20419;-58
2021/03/01 04:18:53;;;;;;;5.13;3.03;;;;;;;;;;5024416;28;20029;-58
2021/03/01 04:21:19;;;;;;;5.07;2.90;;;;;;;;;;5026016;28;20025;-58
2021/03/01 04:23:45;;;;;;;7.30;3.08;;;;;;;;;;5009705;28;20052;-58
2021/03/01 04:26:10;;;;;;;5.55;3.17;;;;;;;;;;5030522;28;20413;-57
2021/03/01 04:28:36;;;;;;;6.20;3.10;;;;;;;;;;5014660;28;20034;-58
2021/03/01 04:31:03;;;;;;;3.78;2.60;;;;;;;;;;5024710;28;20029;-58
2021/03/01 04:33:28;;;;;;;3.85;2.50;;;;;;;;;;5020486;28;20149;-58
2021/03/01 04:35:54;;;;;;;5.95;2.78;;;;;;;;;;5032271;28;20116;-58
2021/03/01 04:38:19;;;;;;;3.17;2.65;;;;;;;;;;5013161;28;20553;-58
2021/03/01 04:40:45;;;;;;;4.07;2.60;;;;;;;;;;5013170;28;20091;-57
2021/03/01 04:43:10;;;;;;;6.30;2.75;;;;;;;;;;5017490;28;20095;-58
2021/03/01 04:45:37;;;;;;;5.20;2.55;;;;;;;;;;5029761;28;20034;-57
2021/03/01 04:48:02;;;;;;;6.18;2.75;;;;;;;;;;5036336;28;20037;-59
2021/03/01 04:50:28;;;;;;;4.45;2.85;;;;;;;;;;5020666;28;20026;-58
2021/03/01 04:52:53;;;;;;;4.47;2.60;;;;;;;;;;5014797;28;20022;-58
2021/03/01 04:55:18;;;;;;;3.85;2.20;;;;;;;;;;5016346;28;20048;-58
2021/03/01 04:57:44;;;;;;;4.18;2.78;;;;;;;;;;5042870;28;20040;-58
2021/03/01 05:00:10;;;;;;;3.90;2.50;;;;;;;;;;5024114;28;20040;-57
2021/03/01 05:02:37;;;;;;;4.43;2.80;;;;;;;;;;5024133;28;20441;-57
2021/03/01 05:05:04;;;;;;;5.03;2.50;;;;;;;;;;5013879;28;20397;-57
2021/03/01 05:07:29;;;;;;;5.93;2.42;;;;;;;;;;5023534;28;20536;-58
2021/03/01 05:09:55;;;;;;;5.05;2.90;;;;;;;;;;5016856;28;20026;-58
2021/03/01 05:12:20;;;;;;;4.00;2.58;;;;;;;;;;5017155;28;20053;-57
2021/03/01 05:14:46;;;;;;;7.03;2.80;;;;;;;;;;5016185;28;20026;-58
2021/03/01 05:17:11;;;;;;;5.28;2.40;;;;;;;;;;5016044;28;20025;-58
2021/03/01 05:19:37;;;;;;;4.68;2.72;;;;;;;;;;5017811;28;20114;-58
2021/03/01 05:22:02;;;;;;;5.25;2.50;;;;;;;;;;5013404;28;20506;-58
2021/03/01 05:24:27;;;;;;;4.47;2.50;;;;;;;;;;5019931;28;21343;-58
2021/03/01 05:26:53;;;;;;;3.78;2.38;;;;;;;;;;5041608;28;20055;-57
2021/03/01 05:29:18;;;;;;;4.45;2.80;;;;;;;;;;5026274;28;20032;-58
2021/03/01 05:31:44;;;;;;;3.42;2.35;;;;;;;;;;5027502;28;20034;-58
2021/03/01 05:34:09;;;;;;;4.05;2.40;;;;;;;;;;5016883;28;20030;-57
2021/03/01 05:36:35;;;;;;;4.03;2.40;;;;;;;;;;5019634;28;20033;-57
2021/03/01 05:39:00;;;;;;;3.95;2.35;;;;;;;;;;5025159;28;20037;-58
2021/03/01 05:41:26;;;;;;;3.95;2.40;;;;;;;;;;5024991;28;20034;-57
2021/03/01 05:43:51;;;;;;;3.17;2.50;;;;;;;;;;5022123;28;20489;-57
2021/03/01 05:46:16;;;;;;;3.88;2.72;;;;;;;;;;5015271;28;20026;-57
2021/03/01 05:48:42;;;;;;;3.78;2.45;;;;;;;;;;5024400;28;20030;-57
2021/03/01 05:51:07;;;;;;;3.97;2.65;;;;;;;;;;5014562;28;20022;-56
2021/03/01 05:53:38;;;;;;;4.57;2.90;;;;;;;;;;5014187;28;20018;-58
2021/03/01 05:56:04;;;;;;;3.70;2.60;;;;;;;;;;5024032;28;20553;-58
2021/03/01 05:58:29;;;;;;;3.85;2.70;;;;;;;;;;5012631;28;20037;-57
2021/03/01 06:01:05;;;;;;;3.78;2.28;;;;;;;;;;5029046;28;20026;-59
2021/03/01 06:03:31;;;;;;;3.10;2.22;;;;;;;;;;5018019;28;20456;-57
2021/03/01 06:05:56;;;;;;;3.75;2.38;;;;;;;;;;5013312;28;20046;-58
2021/03/01 06:08:23;;;;;;;4.10;2.50;;;;;;;;;;5012713;28;20045;-57
2021/03/01 06:10:48;;;;;;;4.93;2.30;;;;;;;;;;5012617;28;20040;-58
2021/03/01 06:13:16;;;;;;;4.03;2.30;;;;;;;;;;5011717;28;20636;-58
2021/03/01 06:15:41;;;;;;;5.18;2.33;;;;;;;;;;5016583;28;20030;-57
2021/03/01 06:18:07;;;;;;;3.10;2.58;;;;;;;;;;5030701;28;20401;-58
2021/03/01 06:20:34;;;;;;;6.68;2.78;;;;;;;;;;5013271;28;20026;-57
2021/03/01 06:23:00;;;;;;;5.95;2.47;;;;;;;;;;5028127;28;20033;-58
2021/03/01 06:25:25;;;;;;;6.03;2.47;;;;;;;;;;5035628;28;20628;-57
2021/03/01 06:27:53;;;;;;;4.32;2.17;;;;;;;;;;5017176;28;20029;-58
2021/03/01 06:30:22;;;;;;;7.38;2.50;;;;;;;;;;5020069;28;20026;-57
2021/03/01 06:33:07;;;;;;;4.50;2.60;;;;;;;;;;5021477;28;20161;-58
2021/03/01 06:35:34;;;;;;;4.25;2.30;;;;;;;;;;5022655;28;20406;-58
2021/03/01 06:38:28;;;;;;;3.22;2.42;;;;;;;;;;5015662;28;20033;-58
2021/03/01 06:41:14;;;;;;;3.95;2.22;;;;;;;;;;5028745;28;20377;-58
2021/03/01 06:44:01;;;;;;;3.22;2.50;;;;;;;;;;5027549;28;20030;-57
2021/03/01 06:46:30;;;;;;;5.30;2.20;;;;;;;;;;5028740;28;20049;-57
2021/03/01 06:48:56;;;;;;;3.65;2.63;;;;;;;;;;5022814;28;20088;-57
2021/03/01 06:51:22;;;;;;;3.30;2.08;;;;;;;;;;5038244;28;20088;-57
2021/03/01 06:53:59;;;;;;;4.30;2.40;;;;;;;;;;5023064;28;20034;-57
2021/03/01 06:56:38;;;;;;;3.75;2.35;;;;;;;;;;5028492;28;20450;-57
2021/03/01 06:59:14;;;;;;;3.67;2.60;;;;;;;;;;5016394;28;20029;-57
2021/03/01 07:01:49;;;;;;;5.65;3.22;;;;;;;;;;5025919;28;20032;-57
2021/03/01 07:04:24;;;;;;;3.72;2.33;;;;;;;;;;5032197;28;20017;-57
2021/03/01 07:06:51;;;;;;;3.22;2.40;;;;;;;;;;5018161;28;20133;-57
2021/03/01 07:09:17;;;;;;;6.72;2.70;;;;;;;;;;5025300;28;20386;-56
2021/03/01 07:11:43;;;;;;;5.25;3.03;;;;;;;;;;5024987;28;20030;-56
2021/03/01 07:14:15;;;;;;;6.70;2.95;;;;;;;;;;5015719;28;20048;-57
2021/03/01 07:16:51;;;;;;;5.13;2.70;;;;;;;;;;5023921;28;20082;-57
2021/03/01 07:19:27;;;;;;;3.38;2.47;;;;;;;;;;5026087;28;20029;-56
2021/03/01 07:21:59;;;;;;;5.30;3.42;;;;;;;;;;5026920;28;20029;-57
2021/03/01 07:24:26;;;;;;;8.02;3.00;;;;;;;;;;5021976;28;20084;-58
2021/03/01 07:26:53;;;;;;;7.22;2.40;;;;;;;;;;5022121;28;20034;-57
2021/03/01 07:29:20;;;;;;;5.97;2.80;;;;;;;;;;5032612;28;20041;-56
2021/03/01 07:32:02;;;;;;;6.07;2.65;;;;;;;;;;5025870;28;20131;-57
2021/03/01 07:34:27;;;;;;;15.85;3.85;;;;;;;;;;5029030;28;20485;-57
2021/03/01 07:36:53;;;;;;;11.10;3.95;;;;;;;;;;5024114;28;20021;-57
2021/03/01 07:39:19;;;;;;;6.63;2.97;;;;;;;;;;5025033;28;20033;-56
2021/03/01 07:41:44;;;;;;;8.38;3.33;;;;;;;;;;5027622;28;20022;-57
2021/03/01 07:44:09;;;;;;;6.13;3.47;;;;;;;;;;5041694;28;20037;-57
2021/03/01 07:46:37;;;;;;;7.80;3.20;;;;;;;;;;5028687;28;20384;-57
2021/03/01 07:49:02;;;;;;;6.15;2.95;;;;;;;;;;5023289;28;20029;-56
2021/03/01 07:51:43;;;;;;;5.68;2.65;;;;;;;;;;5018182;28;20026;-56
2021/03/01 07:54:09;;;;;;;9.20;3.30;;;;;;;;;;5016477;28;20053;-57
2021/03/01 07:56:37;;;;;;;6.05;2.88;;;;;;;;;;5023603;28;20060;-56
2021/03/01 07:59:06;;;;;;;4.22;2.92;;;;;;;;;;5016187;28;20036;-57
2021/03/01 08:01:32;;;;;;;6.68;2.70;;;;;;;;;;5020238;28;20053;-56
2021/03/01 08:03:57;;;;;;;6.70;3.10;;;;;;;;;;5028993;28;20055;-58
2021/03/01 08:06:23;;;;;;;4.55;2.80;;;;;;;;;;5025105;28;20405;-57
2021/03/01 08:08:49;;;;;;;4.85;2.70;;;;;;;;;;5023623;28;20517;-57
2021/03/01 08:11:15;;;;;;;7.78;3.53;;;;;;;;;;5022285;28;20037;-56
2021/03/01 08:13:41;;;;;;;5.10;2.75;;;;;;;;;;5025258;28;20071;-56
2021/03/01 08:16:23;;;;;;;4.80;2.42;;;;;;;;;;5024078;28;20025;-57
2021/03/01 08:18:57;;;;;;;6.43;2.90;;;;;;;;;;5020180;28;20504;-57
2021/03/01 08:21:24;;;;;;;6.90;2.95;;;;;;;;;;5019340;28;20033;-57
2021/03/01 08:23:49;;;;;;;5.00;3.17;;;;;;;;;;5021198;28;20433;-57
2021/03/01 08:26:28;;;;;;;7.03;2.92;;;;;;;;;;5023618;28;20040;-56
2021/03/01 08:28:54;;;;;;;5.78;2.78;;;;;;;;;;5015489;28;20041;-57
2021/03/01 08:31:20;;;;;;;5.47;2.88;;;;;;;;;;5027064;28;20070;-58
2021/03/01 08:33:46;;;;;;;4.78;2.78;;;;;;;;;;5028725;28;20075;-57
2021/03/01 08:36:14;;;;;;;3.72;2.53;;;;;;;;;;5027593;28;20485;-57
2021/03/01 08:38:42;;;;;;;5.22;2.92;;;;;;;;;;5027179;28;20409;-57
2021/03/01 08:41:09;;;;;;;10.20;3.72;;;;;;;;;;5026677;28;20037;-57
2021/03/01 08:43:38;;;;;;;5.65;3.30;;;;;;;;;;5028795;28;20108;-57
2021/03/01 08:46:22;;;;;;;11.05;4.22;;;;;;;;;;5016402;28;20434;-61
2021/03/01 08:48:48;;;;;;;19.30;6.88;;;;;;;;;;5023856;28;20029;-60
2021/03/01 08:51:14;;;;;;;19.33;7.75;;;;;;;;;;5020044;28;20022;-59
2021/03/01 08:53:39;;;;;;;22.83;8.18;;;;;;;;;;5019495;28;20013;-59
2021/03/01 08:56:05;;;;;;;18.35;5.30;;;;;;;;;;5027444;28;20025;-57
2021/03/01 08:58:33;;;;;;;10.98;4.93;;;;;;;;;;5045126;28;20029;-57
2021/03/01 09:01:00;;;;;;;11.52;5.20;;;;;;;;;;5029688;28;20025;-57
2021/03/01 09:03:29;;;;;;;23.13;5.80;;;;;;;;;;5026511;28;20021;-57
2021/03/01 09:06:08;;;;;;;13.68;5.15;;;;;;;;;;5024348;28;20099;-57
2021/03/01 09:08:36;;;;;;;19.42;6.85;;;;;;;;;;5021278;28;20124;-57
2021/03/01 09:11:05;;;;;;;19.42;5.72;;;;;;;;;;5014118;28;20041;-57
2021/03/01 09:13:33;;;;;;;15.70;5.80;;;;;;;;;;5020895;28;20044;-58
2021/03/01 09:16:14;;;;;;;12.85;5.22;;;;;;;;;;5018498;28;20034;-58
2021/03/01 09:18:46;;;;;;;16.17;5.35;;;;;;;;;;5017989;28;20033;-57
2021/03/01 09:21:16;;;;;;;15.98;4.93;;;;;;;;;;5023394;28;20383;-58
2021/03/01 09:23:46;;;;;;;15.90;5.32;;;;;;;;;;5015735;28;20405;-57
2021/03/01 09:26:38;;;;;;;15.10;6.07;;;;;;;;;;5026392;28;20033;-57
2021/03/01 09:29:07;;;;;;;15.77;6.93;;;;;;;;;;5016816;28;20049;-57
2021/03/01 09:31:45;;;;;;;12.40;5.72;;;;;;;;;;5045157;28;20043;-56
2021/03/01 09:34:12;;;;;;;13.32;5.28;;;;;;;;;;5030740;28;20021;-57
2021/03/01 09:36:37;;;;;;;19.80;7.40;;;;;;;;;;5016741;28;20026;-57
2021/03/01 09:39:05;;;;;;;17.42;6.50;;;;;;;;;;5035479;28;20060;-58
2021/03/01 09:41:34;;;;;;;14.20;5.45;;;;;;;;;;5029399;28;20060;-57
2021/03/01 09:43:59;;;;;;;17.23;6.25;;;;;;;;;;5024927;28;20112;-57
2021/03/01 09:46:25;;;;;;;14.73;5.15;;;;;;;;;;5020211;28;20175;-57
2021/03/01 09:48:54;;;;;;;13.40;6.15;;;;;;;;;;5025623;28;20413;-57
2021/03/01 09:51:21;;;;;;;14.55;5.72;;;;;;;;;;5023885;28;20033;-58
2021/03/01 09:53:46;;;;;;;14.27;5.13;;;;;;;;;;5026402;28;20029;-58
2021/03/01 09:56:12;;;;;;;17.13;5.72;;;;;;;;;;5004163;28;20378;-58
2021/03/01 09:58:41;;;;;;;11.27;4.70;;;;;;;;;;5023508;28;20021;-57
2021/03/01 10:01:15;;;;;;;15.82;6.30;;;;;;;;;;5028913;28;20095;-57
2021/03/01 10:03:40;;;;;;;14.50;5.05;;;;;;;;;;5021078;28;20034;-56
2021/03/01 10:06:06;;;;;;;13.02;5.97;;;;;;;;;;5021682;28;20057;-61
2021/03/01 10:08:31;;;;;;;11.50;5.63;;;;;;;;;;5019407;28;20038;-57
2021/03/01 10:10:57;;;;;;;10.07;4.70;;;;;;;;;;5027866;28;20466;-57
2021/03/01 10:13:32;;;;;;;11.98;4.18;;;;;;;;;;5030664;28;20035;-62
2021/03/01 10:15:57;;;;;;;10.90;3.85;;;;;;;;;;5025610;28;20099;-57
2021/03/01 10:18:27;;;;;;;9.07;4.03;;;;;;;;;;5030030;28;20441;-57
2021/03/01 10:21:10;;;;;;;9.93;4.07;;;;;;;;;;5024178;28;20390;-57
2021/03/01 10:23:37;;;;;;;10.25;4.07;;;;;;;;;;5019007;28;20026;-57
2021/03/01 10:26:15;;;;;;;12.02;4.38;;;;;;;;;;5016589;28;20030;-56
2021/03/01 10:28:40;;;;;;;9.13;4.22;;;;;;;;;;5031950;28;20061;-57
2021/03/01 10:31:07;;;;;;;11.75;4.32;;;;;;;;;;5016775;28;20056;-57
2021/03/01 10:33:58;;;;;;;9.38;4.32;;;;;;;;;;5017113;28;20026;-55
2021/03/01 10:36:25;;;;;;;7.35;3.90;;;;;;;;;;5028697;28;20037;-57
2021/03/01 10:39:00;;;;;;;7.00;3.92;;;;;;;;;;5027110;28;20083;-57
2021/03/01 10:41:27;;;;;;;12.25;4.53;;;;;;;;;;5028675;28;20482;-56
2021/03/01 10:44:12;;;;;;;10.70;4.00;;;;;;;;;;5020019;28;20557;-57
2021/03/01 10:46:48;;;;;;;9.00;3.92;;;;;;;;;;5015851;28;20125;-58
2021/03/01 10:49:29;;;;;;;11.77;3.63;;;;;;;;;;5029631;28;20057;-57
2021/03/01 10:51:57;;;;;;;8.02;3.58;;;;;;;;;;5025923;28;20497;-56
2021/03/01 10:54:23;;;;;;;10.98;4.13;;;;;;;;;;5024417;28;20036;-57
2021/03/01 10:56:49;;;;;;;8.73;4.10;;;;;;;;;;5027830;28;20026;-57
2021/03/01 10:59:14;;;;;;;11.23;4.03;;;;;;;;;;5025511;28;20028;-56
2021/03/01 11:01:41;;;;;;;11.60;3.95;;;;;;;;;;5032378;28;20025;-57
2021/03/01 11:04:07;;;;;;;8.73;4.47;;;;;;;;;;5031802;28;20544;-57
2021/03/01 11:06:33;;;;;;;10.82;4.20;;;;;;;;;;5029316;28;20070;-57
2021/03/01 11:08:59;;;;;;;10.60;3.40;;;;;;;;;;5026804;28;20151;-57
2021/03/01 11:11:25;;;;;;;8.20;3.58;;;;;;;;;;5027731;28;20109;-57
2021/03/01 11:13:50;;;;;;;7.30;3.70;;;;;;;;;;5025427;28;20014;-57
2021/03/01 11:16:15;;;;;;;9.38;3.35;;;;;;;;;;5019084;28;20410;-56
2021/03/01 11:18:41;;;;;;;5.85;3.22;;;;;;;;;;5018992;28;20029;-57
2021/03/01 11:21:06;;;;;;;11.93;4.28;;;;;;;;;;5023421;28;20416;-57
2021/03/01 11:23:32;;;;;;;6.97;3.25;;;;;;;;;;5019200;28;20048;-56
2021/03/01 11:25:57;;;;;;;7.32;3.28;;;;;;;;;;5013063;28;20405;-57
2021/03/01 11:28:23;;;;;;;7.03;3.55;;;;;;;;;;5034477;28;20029;-57
2021/03/01 11:30:48;;;;;;;9.23;3.90;;;;;;;;;;5025144;28;20025;-56
2021/03/01 11:33:13;;;;;;;10.50;3.70;;;;;;;;;;5028040;28;21260;-56
2021/03/01 11:35:39;;;;;;;8.10;3.42;;;;;;;;;;5022089;28;20021;-57
2021/03/01 11:38:04;;;;;;;10.00;4.15;;;;;;;;;;5023712;28;20034;-56
2021/03/01 11:40:30;;;;;;;6.05;3.20;;;;;;;;;;5013163;28;20087;-56
2021/03/01 11:42:56;;;;;;;7.85;3.78;;;;;;;;;;5030736;28;20032;-56
2021/03/01 11:45:21;;;;;;;6.90;3.47;;;;;;;;;;5028290;28;20021;-56
2021/03/01 11:47:47;;;;;;;6.57;3.00;;;;;;;;;;5030284;28;20500;-57
2021/03/01 11:50:12;;;;;;;12.13;3.75;;;;;;;;;;5028351;28;20037;-56
2021/03/01 11:52:38;;;;;;;6.75;3.28;;;;;;;;;;5013217;28;20113;-57
2021/03/01 11:55:04;;;;;;;12.23;3.72;;;;;;;;;;5021252;28;20421;-57
2021/03/01 11:57:29;;;;;;;9.10;3.67;;;;;;;;;;5018923;28;20037;-57
2021/03/01 11:59:55;;;;;;;12.57;3.90;;;;;;;;;;5021358;28;20026;-57
2021/03/01 12:02:20;;;;;;;20.98;4.22;;;;;;;;;;5028288;28;20557;-58
2021/03/01 12:04:46;;;;;;;11.48;3.88;;;;;;;;;;5023291;28;20045;-57
2021/03/01 12:07:11;;;;;;;14.70;6.25;;;;;;;;;;5027604;28;20068;-57
2021/03/01 12:09:36;;;;;;;10.45;4.32;;;;;;;;;;5024864;28;20032;-56
2021/03/01 12:12:02;;;;;;;13.15;4.70;;;;;;;;;;5027417;28;20040;-57
2021/03/01 12:14:27;;;;;;;13.45;4.00;;;;;;;;;;5025055;28;20033;-57
2021/03/01 12:16:53;;;;;;;9.40;4.32;;;;;;;;;;5019966;28;20440;-57
2021/03/01 12:19:18;;;;;;;12.63;4.15;;;;;;;;;;5024422;28;20035;-57
2021/03/01 12:21:44;;;;;;;10.27;4.20;;;;;;;;;;5029000;28;20033;-56
2021/03/01 12:24:10;;;;;;;11.65;4.13;;;;;;;;;;5020578;28;20034;-56
2021/03/01 12:26:36;;;;;;;11.50;3.72;;;;;;;;;;5024650;28;20080;-56
2021/03/01 12:29:01;;;;;;;13.18;4.38;;;;;;;;;;5015765;28;20508;-56
2021/03/01 12:31:26;;;;;;;8.38;3.88;;;;;;;;;;5028725;28;20029;-56
2021/03/01 12:33:52;;;;;;;17.70;8.60;;;;;;;;;;5021596;28;20056;-55
2021/03/01 12:36:18;;;;;;;10.80;5.85;;;;;;;;;;5029215;28;20037;-57
2021/03/01 12:38:44;;;;;;;9.57;4.32;;;;;;;;;;5023681;28;20017;-57
2021/03/01 12:41:09;;;;;;;11.73;4.95;;;;;;;;;;5029159;28;20048;-56
2021/03/01 12:43:35;;;;;;;9.73;4.82;;;;;;;;;;5017289;28;20025;-56
2021/03/01 12:46:00;;;;;;;15.07;4.63;;;;;;;;;;5030757;28;20467;-57
2021/03/01 12:48:25;;;;;;;10.98;4.93;;;;;;;;;;5018021;28;20029;-57
2021/03/01 12:50:51;;;;;;;13.70;5.43;;;;;;;;;;5025957;28;20470;-56
2021/03/01 12:53:16;;;;;;;10.07;4.60;;;;;;;;;;5037113;28;20040;-56
2021/03/01 12:55:42;;;;;;;11.40;4.47;;;;;;;;;;5013923;28;20081;-56
2021/03/01 12:58:07;;;;;;;10.75;4.35;;;;;;;;;;5014484;28;20493;-56
2021/03/01 13:00:33;;;;;;;10.45;4.40;;;;;;;;;;5024214;28;20026;-56
2021/03/01 13:02:58;;;;;;;14.13;5.20;;;;;;;;;;5029428;28;20119;-57
2021/03/01 13:05:24;;;;;;;10.38;4.75;;;;;;;;;;5030036;28;20045;-56
2021/03/01 13:07:49;;;;;;;10.20;4.28;;;;;;;;;;5022835;28;20037;-57
2021/03/01 13:10:14;;;;;;;10.93;4.10;;;;;;;;;;5023117;28;20560;-56
2021/03/01 13:12:41;;;;;;;9.50;4.50;;;;;;;;;;5014953;28;20133;-56
2021/03/01 13:15:07;;;;;;;10.68;4.00;;;;;;;;;;5024289;28;20037;-56
2021/03/01 13:17:33;;;;;;;10.35;4.35;;;;;;;;;;5013964;28;20029;-56
2021/03/01 13:19:58;;;;;;;11.25;4.38;;;;;;;;;;5016609;28;20410;-57
2021/03/01 13:22:23;;;;;;;13.15;4.60;;;;;;;;;;5015377;28;20397;-56
2021/03/01 13:24:49;;;;;;;10.48;4.35;;;;;;;;;;5018348;28;20022;-56
2021/03/01 13:27:16;;;;;;;10.48;4.43;;;;;;;;;;5024475;28;20040;-58
2021/03/01 13:29:45;;;;;;;10.02;4.40;;;;;;;;;;5025516;28;20049;-57
2021/03/01 13:32:10;;;;;;;10.80;4.13;;;;;;;;;;5014752;28;20029;-57
2021/03/01 13:34:35;;;;;;;7.72;4.10;;;;;;;;;;5010882;28;20029;-57
2021/03/01 13:37:01;;;;;;;11.55;4.65;;;;;;;;;;5033306;28;20025;-57
2021/03/01 13:39:26;;;;;;;8.25;3.60;;;;;;;;;;5022010;28;20029;-56
2021/03/01 13:41:52;;;;;;;10.63;3.72;;;;;;;;;;5023103;28;20028;-57
2021/03/01 13:44:18;;;;;;;8.73;3.92;;;;;;;;;;5018639;28;20030;-57
2021/03/01 13:46:43;;;;;;;6.35;4.03;;;;;;;;;;5016675;28;20025;-57
2021/03/01 13:49:08;;;;;;;10.77;4.55;;;;;;;;;;5017119;28;20023;-57
2021/03/01 13:51:34;;;;;;;8.80;3.63;;;;;;;;;;5022784;28;20022;-58
2021/03/01 13:53:59;;;;;;;6.47;3.83;;;;;;;;;;5018776;28;20029;-57
2021/03/01 13:56:24;;;;;;;8.57;3.63;;;;;;;;;;5021586;28;20446;-56
2021/03/01 13:58:50;;;;;;;7.55;3.90;;;;;;;;;;5018973;28;20485;-57
2021/03/01 14:01:20;;;;;;;7.18;3.58;;;;;;;;;;5016450;28;20032;-55
2021/03/01 14:03:45;;;;;;;8.00;4.30;;;;;;;;;;5017910;28;20037;-56
2021/03/01 14:06:11;;;;;;;7.00;4.05;;;;;;;;;;5024543;28;20289;-56
2021/03/01 14:08:36;;;;;;;6.40;3.42;;;;;;;;;;5017006;28;20021;-56
2021/03/01 14:11:01;;;;;;;7.65;3.83;;;;;;;;;;5018956;28;20401;-56
2021/03/01 14:13:27;;;;;;;5.63;3.35;;;;;;;;;;5018734;28;20025;-56
2021/03/01 14:15:52;;;;;;;5.57;3.65;;;;;;;;;;5022967;28;20026;-57
2021/03/01 14:18:18;;;;;;;5.60;3.20;;;;;;;;;;5027265;28;20056;-57
2021/03/01 14:20:43;;;;;;;5.82;3.25;;;;;;;;;;5028566;28;20017;-56
2021/03/01 14:23:08;;;;;;;8.93;3.83;;;;;;;;;;5017998;28;20044;-56
2021/03/01 14:25:34;;;;;;;6.80;3.70;;;;;;;;;;5014808;28;20021;-57
2021/03/01 14:27:59;;;;;;;7.60;3.58;;;;;;;;;;5018048;28;20053;-56
2021/03/01 14:30:26;;;;;;;6.70;3.40;;;;;;;;;;5022058;28;20034;-57
2021/03/01 14:32:52;;;;;;;7.40;3.40;;;;;;;;;;5024648;28;20022;-56
2021/03/01 14:35:17;;;;;;;6.82;3.60;;;;;;;;;;5020728;28;20060;-56
2021/03/01 14:37:43;;;;;;;6.30;3.47;;;;;;;;;;5017188;28;20029;-57
2021/03/01 14:40:09;;;;;;;6.80;3.42;;;;;;;;;;5018109;28;20026;-56
2021/03/01 14:42:34;;;;;;;7.78;3.38;;;;;;;;;;5017628;28;20036;-58